Woodland Park, Colorado
Current Conditions -  °F | °C
As of 12:58 PM on Thursday 27 Nov 2014 (Local Time) from KAFF Reporting Station
Few Clouds Few Clouds  
Wind Chill: 63°   Ceiling: Unl
Heat Index: 63°   Visibility: 10mi
Dew Point: 10°   Wind: 14mph
Humidity: 12%   Direction: 260°W
Pressure: 30.21"   Gusts: NA
Location:  38.99°N, 105.05°W
Report Text: KAFF 271958Z AUTO 26012KT 10SM FEW190 17/M12 A3021 RMK AO2 SLP216 T01711124
Loading
Personal Weather Stations






























Interactive Weather Map New forecast layout! Learn more

10-Day Weather Forecast

Advertisements
Track Severe Weather on mobile